XIO230 LSZA-EGLF
Flight info
| Callsign | XIO230 |
|---|---|
| Flight time | 1h 22m |
| Altitude | 43000 |
| Route | CANNE Z651 MANEG DCT RIPUS DCT DITON DCT HOC DCT LUL DCT RLP DCT ROTSI DCT KOTUN DCT NIDUV DCT SOSUN DCT SUBIP UM8 ELDAX |
| Aircraft | GLF6/M-SBDE1E2E3FGHIJ3J4J5J7M1P2RWXYZ/LB1D1 |
Departure
| Time | 2026-04-20 12:36 |
|---|---|
| Airport | Lugano Airport (LSZA) |
Arrival
| Time | 2026-04-20 13:59 |
|---|---|
| Airport | Farnborough Airport (EGLF) |
| Time | Latitude | Longitude | Altitude | Speed | Heading |
|---|---|---|---|---|---|
| 2026-04-20 12:23 | 46.00184 | 8.90777 | 897 ft | 0 kts | 19° |
| 2026-04-20 12:32 | 46.00199 | 8.90785 | 897 ft | 7 kts | 18° |
| 2026-04-20 12:32 | 46.00230 | 8.90851 | 897 ft | 8 kts | 18° |
| 2026-04-20 12:32 | 46.00314 | 8.90891 | 897 ft | 18 kts | 18° |
| 2026-04-20 12:33 | 46.00467 | 8.90965 | 897 ft | 28 kts | 19° |
| 2026-04-20 12:33 | 46.00479 | 8.90993 | 897 ft | 9 kts | 215° |
| 2026-04-20 12:33 | 46.00446 | 8.91065 | 900 ft | 12 kts | 67° |
| 2026-04-20 12:33 | 46.00506 | 8.91098 | 901 ft | 13 kts | 18° |
| 2026-04-20 12:34 | 46.00630 | 8.91159 | 897 ft | 24 kts | 19° |
| 2026-04-20 12:34 | 46.00803 | 8.91244 | 895 ft | 32 kts | 19° |
| 2026-04-20 12:34 | 46.00997 | 8.91335 | 895 ft | 16 kts | 15° |
| 2026-04-20 12:34 | 46.01049 | 8.91339 | 896 ft | 7 kts | 38° |
| 2026-04-20 12:35 | 46.01036 | 8.91357 | 896 ft | 4 kts | 195° |
| 2026-04-20 12:35 | 46.01021 | 8.91350 | 896 ft | 0 kts | 197° |
| 2026-04-20 12:36 | 46.00984 | 8.91333 | 895 ft | 35 kts | 199° |
| 2026-04-20 12:36 | 46.00428 | 8.91060 | 900 ft | 132 kts | 199° |
| 2026-04-20 12:36 | 45.99496 | 8.90566 | 1787 ft | 149 kts | 201° |
| 2026-04-20 12:37 | 45.98495 | 8.89958 | 2867 ft | 171 kts | 204° |
| 2026-04-20 12:37 | 45.97240 | 8.89122 | 3679 ft | 220 kts | 205° |
| 2026-04-20 12:37 | 45.95765 | 8.88199 | 5108 ft | 245 kts | 198° |
| 2026-04-20 12:37 | 45.94049 | 8.87508 | 6741 ft | 264 kts | 195° |
| 2026-04-20 12:38 | 45.92846 | 8.87058 | 7871 ft | 274 kts | 196° |
| 2026-04-20 12:38 | 45.90962 | 8.86349 | 9718 ft | 284 kts | 197° |
| 2026-04-20 12:38 | 45.89069 | 8.85475 | 11478 ft | 286 kts | 207° |
| 2026-04-20 12:38 | 45.87348 | 8.83977 | 13006 ft | 299 kts | 222° |
| 2026-04-20 12:39 | 45.84505 | 8.79118 | 14268 ft | 344 kts | 239° |
| 2026-04-20 12:39 | 45.83066 | 8.76187 | 14658 ft | 372 kts | 238° |
| 2026-04-20 12:39 | 45.81598 | 8.73092 | 15634 ft | 376 kts | 244° |
| 2026-04-20 12:40 | 45.80802 | 8.69562 | 16837 ft | 372 kts | 264° |
| 2026-04-20 12:40 | 45.80926 | 8.65863 | 17898 ft | 380 kts | 281° |
| 2026-04-20 12:40 | 45.81868 | 8.62169 | 17953 ft | 414 kts | 297° |
| 2026-04-20 12:40 | 45.83711 | 8.58807 | 17948 ft | 447 kts | 314° |
| 2026-04-20 12:41 | 45.86301 | 8.56172 | 17955 ft | 479 kts | 329° |
| 2026-04-20 12:41 | 45.89515 | 8.54498 | 17955 ft | 508 kts | 343° |
| 2026-04-20 12:41 | 45.93121 | 8.54011 | 17956 ft | 536 kts | 357° |
| 2026-04-20 12:41 | 45.96897 | 8.54810 | 17946 ft | 563 kts | 11° |
| 2026-04-20 12:42 | 46.00610 | 8.56913 | 17947 ft | 586 kts | 24° |
| 2026-04-20 12:42 | 46.03848 | 8.60102 | 17919 ft | 545 kts | 37° |
| 2026-04-20 12:42 | 46.06278 | 8.64051 | 17924 ft | 513 kts | 51° |
| 2026-04-20 12:42 | 46.08059 | 8.68374 | 18010 ft | 490 kts | 58° |
| 2026-04-20 12:43 | 46.09556 | 8.72687 | 18905 ft | 469 kts | 60° |
| 2026-04-20 12:43 | 46.10981 | 8.76775 | 20724 ft | 451 kts | 58° |
| 2026-04-20 12:43 | 46.12585 | 8.80702 | 21043 ft | 457 kts | 47° |
| 2026-04-20 12:43 | 46.14865 | 8.83781 | 21725 ft | 444 kts | 28° |
| 2026-04-20 12:44 | 46.17604 | 8.85707 | 22310 ft | 434 kts | 11° |
| 2026-04-20 12:44 | 46.20503 | 8.86625 | 22868 ft | 431 kts | 2° |
| 2026-04-20 12:44 | 46.23473 | 8.86890 | 23546 ft | 426 kts | 353° |
| 2026-04-20 12:44 | 46.26408 | 8.86571 | 24121 ft | 424 kts | 349° |
| 2026-04-20 12:45 | 46.29366 | 8.86244 | 24588 ft | 428 kts | 349° |
| 2026-04-20 12:45 | 46.32332 | 8.85838 | 25065 ft | 429 kts | 347° |
| 2026-04-20 12:45 | 46.35298 | 8.85305 | 25574 ft | 431 kts | 347° |
| 2026-04-20 12:45 | 46.38294 | 8.84827 | 26047 ft | 435 kts | 348° |
| 2026-04-20 12:46 | 46.41328 | 8.84418 | 26469 ft | 439 kts | 348° |
| 2026-04-20 12:46 | 46.44369 | 8.83980 | 26939 ft | 440 kts | 347° |
| 2026-04-20 12:46 | 46.47428 | 8.83492 | 27447 ft | 443 kts | 347° |
| 2026-04-20 12:46 | 46.50505 | 8.83014 | 27926 ft | 447 kts | 347° |
| 2026-04-20 12:47 | 46.53610 | 8.82557 | 28379 ft | 450 kts | 347° |
| 2026-04-20 12:47 | 46.56730 | 8.82094 | 28869 ft | 453 kts | 347° |
| 2026-04-20 12:47 | 46.59881 | 8.81612 | 29654 ft | 457 kts | 347° |
| 2026-04-20 12:47 | 46.63062 | 8.81122 | 30244 ft | 462 kts | 347° |
| 2026-04-20 12:48 | 46.66231 | 8.80645 | 30917 ft | 465 kts | 347° |
| 2026-04-20 12:48 | 46.69476 | 8.80152 | 31254 ft | 476 kts | 347° |
| 2026-04-20 12:48 | 46.72826 | 8.79637 | 31331 ft | 492 kts | 347° |
| 2026-04-20 12:48 | 46.76249 | 8.79121 | 31892 ft | 494 kts | 348° |
| 2026-04-20 12:49 | 46.79659 | 8.78616 | 32783 ft | 492 kts | 348° |
| 2026-04-20 12:49 | 46.83069 | 8.78093 | 33483 ft | 492 kts | 348° |
| 2026-04-20 12:49 | 46.86467 | 8.77563 | 34308 ft | 491 kts | 348° |
| 2026-04-20 12:49 | 46.89875 | 8.77044 | 34866 ft | 492 kts | 348° |
| 2026-04-20 12:50 | 46.93283 | 8.76526 | 35451 ft | 493 kts | 349° |
| 2026-04-20 12:50 | 46.96709 | 8.76000 | 35680 ft | 499 kts | 349° |
| 2026-04-20 12:50 | 47.00156 | 8.75455 | 36352 ft | 494 kts | 348° |
| 2026-04-20 12:50 | 47.03560 | 8.74912 | 37063 ft | 492 kts | 348° |
| 2026-04-20 12:51 | 47.06933 | 8.74374 | 37576 ft | 494 kts | 348° |
| 2026-04-20 12:51 | 47.10286 | 8.73455 | 38143 ft | 486 kts | 340° |
| 2026-04-20 12:51 | 47.13451 | 8.71808 | 38746 ft | 480 kts | 332° |
| 2026-04-20 12:51 | 47.16382 | 8.69489 | 39133 ft | 476 kts | 324° |
| 2026-04-20 12:52 | 47.19024 | 8.66573 | 39504 ft | 474 kts | 316° |
| 2026-04-20 12:52 | 47.21327 | 8.63129 | 39867 ft | 472 kts | 308° |
| 2026-04-20 12:52 | 47.23253 | 8.59222 | 40218 ft | 472 kts | 301° |
| 2026-04-20 12:52 | 47.24763 | 8.54934 | 40549 ft | 472 kts | 292° |
| 2026-04-20 12:53 | 47.25922 | 8.50407 | 40875 ft | 473 kts | 290° |
| 2026-04-20 12:53 | 47.27070 | 8.45852 | 41217 ft | 474 kts | 290° |
| 2026-04-20 12:53 | 47.28230 | 8.41294 | 41519 ft | 475 kts | 290° |
| 2026-04-20 12:53 | 47.29380 | 8.36717 | 41857 ft | 477 kts | 290° |
| 2026-04-20 12:54 | 47.30525 | 8.32122 | 42159 ft | 478 kts | 290° |
| 2026-04-20 12:54 | 47.31676 | 8.27513 | 42455 ft | 480 kts | 290° |
| 2026-04-20 12:54 | 47.32826 | 8.22892 | 42750 ft | 481 kts | 290° |
| 2026-04-20 12:54 | 47.33963 | 8.18311 | 43049 ft | 482 kts | 290° |
| 2026-04-20 12:55 | 47.35123 | 8.13630 | 43046 ft | 490 kts | 290° |
| 2026-04-20 12:55 | 47.37487 | 8.04061 | 43070 ft | 503 kts | 290° |
| 2026-04-20 12:56 | 47.39908 | 7.94219 | 43075 ft | 516 kts | 290° |
| 2026-04-20 12:56 | 47.42379 | 7.84129 | 43107 ft | 528 kts | 290° |
| 2026-04-20 12:57 | 47.44824 | 7.74094 | 43112 ft | 500 kts | 290° |
| 2026-04-20 12:57 | 47.45980 | 7.69333 | 43118 ft | 488 kts | 290° |
| 2026-04-20 12:57 | 47.47002 | 7.64548 | 43130 ft | 489 kts | 284° |
| 2026-04-20 12:58 | 47.48629 | 7.54753 | 43154 ft | 492 kts | 285° |
| 2026-04-20 12:58 | 47.50271 | 7.45005 | 43076 ft | 492 kts | 284° |
| 2026-04-20 12:59 | 47.51892 | 7.35170 | 43085 ft | 492 kts | 284° |
| 2026-04-20 12:59 | 47.53522 | 7.25334 | 43126 ft | 492 kts | 284° |
| 2026-04-20 13:00 | 47.55136 | 7.15467 | 43110 ft | 492 kts | 284° |
| 2026-04-20 13:00 | 47.56746 | 7.05606 | 43141 ft | 492 kts | 284° |
| 2026-04-20 13:01 | 47.58342 | 6.95751 | 43160 ft | 491 kts | 284° |
| 2026-04-20 13:01 | 47.59920 | 6.85964 | 43181 ft | 491 kts | 284° |
| 2026-04-20 13:02 | 47.61501 | 6.76092 | 43171 ft | 493 kts | 284° |
| 2026-04-20 13:02 | 47.63076 | 6.66201 | 43157 ft | 493 kts | 284° |
| 2026-04-20 13:03 | 47.64644 | 6.56296 | 43135 ft | 493 kts | 283° |
| 2026-04-20 13:03 | 47.66200 | 6.46405 | 43165 ft | 493 kts | 283° |
| 2026-04-20 13:04 | 47.67751 | 6.36490 | 43171 ft | 493 kts | 283° |
| 2026-04-20 13:04 | 47.69451 | 6.26630 | 43175 ft | 492 kts | 288° |
| 2026-04-20 13:05 | 47.71526 | 6.16927 | 43162 ft | 494 kts | 287° |
| 2026-04-20 13:05 | 47.73582 | 6.07190 | 43142 ft | 494 kts | 288° |
| 2026-04-20 13:06 | 47.75630 | 5.97511 | 43127 ft | 494 kts | 287° |
| 2026-04-20 13:06 | 47.77673 | 5.87760 | 43098 ft | 494 kts | 287° |
| 2026-04-20 13:07 | 47.79713 | 5.78011 | 43099 ft | 494 kts | 287° |
| 2026-04-20 13:07 | 47.81742 | 5.68248 | 43098 ft | 494 kts | 287° |
| 2026-04-20 13:08 | 47.83763 | 5.58480 | 43102 ft | 494 kts | 287° |
| 2026-04-20 13:08 | 47.85779 | 5.48689 | 43098 ft | 494 kts | 287° |
| 2026-04-20 13:09 | 47.87785 | 5.38897 | 43100 ft | 494 kts | 287° |
| 2026-04-20 13:09 | 47.89980 | 5.29214 | 43101 ft | 493 kts | 294° |
| 2026-04-20 13:10 | 47.93470 | 5.20464 | 43110 ft | 497 kts | 306° |
| 2026-04-20 13:10 | 47.98053 | 5.12729 | 43124 ft | 498 kts | 310° |
| 2026-04-20 13:11 | 48.02690 | 5.05043 | 43118 ft | 498 kts | 310° |
| 2026-04-20 13:11 | 48.07340 | 4.97362 | 43125 ft | 498 kts | 310° |
| 2026-04-20 13:12 | 48.11977 | 4.89652 | 43128 ft | 498 kts | 310° |
| 2026-04-20 13:12 | 48.16584 | 4.81981 | 43140 ft | 499 kts | 310° |
| 2026-04-20 13:13 | 48.21197 | 4.74276 | 43141 ft | 500 kts | 310° |
| 2026-04-20 13:13 | 48.25843 | 4.66492 | 43138 ft | 500 kts | 310° |
| 2026-04-20 13:14 | 48.30475 | 4.58709 | 43146 ft | 500 kts | 310° |
| 2026-04-20 13:14 | 48.35106 | 4.50902 | 43171 ft | 500 kts | 310° |
| 2026-04-20 13:15 | 48.39741 | 4.43068 | 43180 ft | 501 kts | 310° |
| 2026-04-20 13:15 | 48.44373 | 4.35214 | 43199 ft | 502 kts | 310° |
| 2026-04-20 13:16 | 48.49004 | 4.27342 | 43193 ft | 502 kts | 310° |
| 2026-04-20 13:16 | 48.53623 | 4.19462 | 43209 ft | 507 kts | 310° |
| 2026-04-20 13:17 | 48.58294 | 4.11473 | 43245 ft | 506 kts | 310° |
| 2026-04-20 13:17 | 48.62950 | 4.03482 | 43235 ft | 506 kts | 310° |
| 2026-04-20 13:18 | 48.67605 | 3.95471 | 43233 ft | 507 kts | 310° |
| 2026-04-20 13:18 | 48.72255 | 3.87444 | 43224 ft | 507 kts | 309° |
| 2026-04-20 13:19 | 48.76783 | 3.79260 | 43208 ft | 506 kts | 308° |
| 2026-04-20 13:19 | 48.81279 | 3.71148 | 43182 ft | 507 kts | 308° |
| 2026-04-20 13:20 | 48.85798 | 3.62920 | 43186 ft | 507 kts | 308° |
| 2026-04-20 13:20 | 48.90284 | 3.54751 | 43192 ft | 507 kts | 308° |
| 2026-04-20 13:21 | 48.94793 | 3.46506 | 43190 ft | 507 kts | 308° |
| 2026-04-20 13:21 | 48.99294 | 3.38254 | 43190 ft | 506 kts | 308° |
| 2026-04-20 13:22 | 49.03789 | 3.29983 | 43207 ft | 506 kts | 308° |
| 2026-04-20 13:22 | 49.08278 | 3.21699 | 43201 ft | 506 kts | 308° |
| 2026-04-20 13:23 | 49.12759 | 3.13404 | 43204 ft | 506 kts | 308° |
| 2026-04-20 13:23 | 49.17205 | 3.05148 | 43200 ft | 506 kts | 308° |
| 2026-04-20 13:24 | 49.21671 | 2.96827 | 43200 ft | 505 kts | 308° |
| 2026-04-20 13:24 | 49.26130 | 2.88495 | 43204 ft | 505 kts | 308° |
| 2026-04-20 13:25 | 49.30583 | 2.80146 | 43208 ft | 506 kts | 308° |
| 2026-04-20 13:25 | 49.35036 | 2.71774 | 43210 ft | 506 kts | 308° |
| 2026-04-20 13:26 | 49.39532 | 2.63473 | 43206 ft | 506 kts | 309° |
| 2026-04-20 13:26 | 49.43264 | 2.56543 | 43216 ft | 505 kts | 308° |
| 2026-04-20 13:27 | 49.47731 | 2.48208 | 43229 ft | 505 kts | 308° |
| 2026-04-20 13:27 | 49.52207 | 2.39853 | 43251 ft | 506 kts | 308° |
| 2026-04-20 13:28 | 49.56674 | 2.31475 | 43260 ft | 506 kts | 308° |
| 2026-04-20 13:28 | 49.61138 | 2.23085 | 43251 ft | 506 kts | 308° |
| 2026-04-20 13:29 | 49.65579 | 2.14702 | 42710 ft | 513 kts | 308° |
| 2026-04-20 13:29 | 49.67829 | 2.10450 | 42042 ft | 510 kts | 308° |
| 2026-04-20 13:29 | 49.70062 | 2.06221 | 41372 ft | 506 kts | 308° |
| 2026-04-20 13:29 | 49.72276 | 2.02019 | 40707 ft | 504 kts | 308° |
| 2026-04-20 13:30 | 49.74490 | 1.97812 | 40034 ft | 503 kts | 308° |
| 2026-04-20 13:30 | 49.76692 | 1.93621 | 39375 ft | 500 kts | 308° |
| 2026-04-20 13:30 | 49.78879 | 1.89453 | 38675 ft | 497 kts | 308° |
| 2026-04-20 13:30 | 49.81048 | 1.85311 | 38008 ft | 494 kts | 308° |
| 2026-04-20 13:31 | 49.83211 | 1.81173 | 37361 ft | 494 kts | 308° |
| 2026-04-20 13:31 | 49.85369 | 1.77040 | 36712 ft | 492 kts | 308° |
| 2026-04-20 13:31 | 49.87521 | 1.72915 | 36063 ft | 490 kts | 308° |
| 2026-04-20 13:31 | 49.89658 | 1.68808 | 35421 ft | 489 kts | 308° |
| 2026-04-20 13:32 | 49.91760 | 1.64761 | 34783 ft | 487 kts | 308° |
| 2026-04-20 13:32 | 49.93869 | 1.60700 | 34130 ft | 478 kts | 308° |
| 2026-04-20 13:32 | 49.95933 | 1.56716 | 33524 ft | 469 kts | 308° |
| 2026-04-20 13:32 | 49.98005 | 1.52811 | 32869 ft | 467 kts | 310° |
| 2026-04-20 13:33 | 50.00311 | 1.49295 | 32262 ft | 461 kts | 316° |
| 2026-04-20 13:33 | 50.02727 | 1.46045 | 31659 ft | 458 kts | 316° |
| 2026-04-20 13:33 | 50.05111 | 1.42793 | 31069 ft | 452 kts | 316° |
| 2026-04-20 13:33 | 50.07458 | 1.39579 | 30475 ft | 447 kts | 316° |
| 2026-04-20 13:34 | 50.09791 | 1.36407 | 29838 ft | 442 kts | 316° |
| 2026-04-20 13:34 | 50.12095 | 1.33275 | 29268 ft | 437 kts | 316° |
| 2026-04-20 13:34 | 50.14372 | 1.30157 | 28703 ft | 435 kts | 316° |
| 2026-04-20 13:34 | 50.16641 | 1.27049 | 28135 ft | 431 kts | 316° |
| 2026-04-20 13:35 | 50.18856 | 1.24019 | 27606 ft | 427 kts | 316° |
| 2026-04-20 13:35 | 50.21087 | 1.20958 | 27020 ft | 426 kts | 316° |
| 2026-04-20 13:35 | 50.23302 | 1.17916 | 26459 ft | 423 kts | 316° |
| 2026-04-20 13:35 | 50.25500 | 1.14894 | 25907 ft | 419 kts | 316° |
| 2026-04-20 13:36 | 50.27685 | 1.11883 | 25356 ft | 418 kts | 316° |
| 2026-04-20 13:36 | 50.29859 | 1.08889 | 24808 ft | 415 kts | 316° |
| 2026-04-20 13:36 | 50.32012 | 1.05914 | 24264 ft | 412 kts | 316° |
| 2026-04-20 13:36 | 50.34155 | 1.02952 | 23701 ft | 410 kts | 317° |
| 2026-04-20 13:37 | 50.36280 | 1.00014 | 23137 ft | 405 kts | 316° |
| 2026-04-20 13:37 | 50.38384 | 0.97096 | 22614 ft | 403 kts | 316° |
| 2026-04-20 13:37 | 50.40479 | 0.94188 | 22086 ft | 400 kts | 316° |
| 2026-04-20 13:37 | 50.42392 | 0.91063 | 21564 ft | 396 kts | 309° |
| 2026-04-20 13:38 | 50.43996 | 0.87578 | 21041 ft | 394 kts | 302° |
| 2026-04-20 13:38 | 50.45282 | 0.83785 | 20521 ft | 391 kts | 295° |
| 2026-04-20 13:38 | 50.46222 | 0.79794 | 20009 ft | 389 kts | 288° |
| 2026-04-20 13:38 | 50.46971 | 0.75726 | 19499 ft | 387 kts | 287° |
| 2026-04-20 13:39 | 50.47750 | 0.71684 | 18995 ft | 386 kts | 288° |
| 2026-04-20 13:39 | 50.48513 | 0.67666 | 18460 ft | 383 kts | 287° |
| 2026-04-20 13:39 | 50.49066 | 0.63647 | 18061 ft | 379 kts | 279° |
| 2026-04-20 13:39 | 50.49411 | 0.59529 | 17804 ft | 382 kts | 280° |
| 2026-04-20 13:40 | 50.49829 | 0.55442 | 17527 ft | 377 kts | 281° |
| 2026-04-20 13:40 | 50.50239 | 0.51370 | 17250 ft | 378 kts | 280° |
| 2026-04-20 13:40 | 50.50605 | 0.47288 | 16972 ft | 376 kts | 279° |
| 2026-04-20 13:40 | 50.50975 | 0.43229 | 16694 ft | 374 kts | 280° |
| 2026-04-20 13:41 | 50.51362 | 0.39188 | 16423 ft | 373 kts | 280° |
| 2026-04-20 13:41 | 50.51741 | 0.35148 | 16152 ft | 373 kts | 279° |
| 2026-04-20 13:41 | 50.52110 | 0.31123 | 15879 ft | 372 kts | 279° |
| 2026-04-20 13:41 | 50.52481 | 0.27113 | 15603 ft | 370 kts | 279° |
| 2026-04-20 13:42 | 50.52849 | 0.23114 | 15332 ft | 369 kts | 279° |
| 2026-04-20 13:42 | 50.53579 | 0.15138 | 14793 ft | 368 kts | 279° |
| 2026-04-20 13:42 | 50.53939 | 0.11163 | 14526 ft | 367 kts | 279° |
| 2026-04-20 13:43 | 50.54299 | 0.07198 | 14257 ft | 366 kts | 279° |
| 2026-04-20 13:43 | 50.54656 | 0.03242 | 13976 ft | 365 kts | 279° |
| 2026-04-20 13:43 | 50.55009 | -0.00700 | 13709 ft | 363 kts | 279° |
| 2026-04-20 13:43 | 50.55362 | -0.04623 | 13439 ft | 362 kts | 279° |
| 2026-04-20 13:44 | 50.55706 | -0.08497 | 13179 ft | 362 kts | 279° |
| 2026-04-20 13:44 | 50.56054 | -0.12408 | 12915 ft | 361 kts | 279° |
| 2026-04-20 13:44 | 50.56401 | -0.16324 | 12650 ft | 360 kts | 279° |
| 2026-04-20 13:44 | 50.56742 | -0.20218 | 12384 ft | 359 kts | 279° |
| 2026-04-20 13:45 | 50.57085 | -0.24105 | 12122 ft | 358 kts | 279° |
| 2026-04-20 13:45 | 50.57423 | -0.27990 | 11859 ft | 358 kts | 279° |
| 2026-04-20 13:45 | 50.57761 | -0.31865 | 11597 ft | 357 kts | 279° |
| 2026-04-20 13:45 | 50.58111 | -0.35726 | 11332 ft | 355 kts | 281° |
| 2026-04-20 13:46 | 50.58803 | -0.39441 | 11066 ft | 353 kts | 292° |
| 2026-04-20 13:46 | 50.59889 | -0.42906 | 10810 ft | 353 kts | 301° |
| 2026-04-20 13:46 | 50.61346 | -0.46009 | 10554 ft | 352 kts | 311° |
| 2026-04-20 13:46 | 50.63043 | -0.48704 | 10309 ft | 350 kts | 315° |
| 2026-04-20 13:47 | 50.64762 | -0.51429 | 10044 ft | 351 kts | 314° |
| 2026-04-20 13:47 | 50.66466 | -0.54178 | 9772 ft | 348 kts | 315° |
| 2026-04-20 13:47 | 50.68149 | -0.56775 | 9506 ft | 328 kts | 318° |
| 2026-04-20 13:47 | 50.69955 | -0.58799 | 9260 ft | 310 kts | 329° |
| 2026-04-20 13:48 | 50.71803 | -0.60354 | 9045 ft | 293 kts | 332° |
| 2026-04-20 13:48 | 50.73557 | -0.61849 | 8833 ft | 280 kts | 331° |
| 2026-04-20 13:48 | 50.75241 | -0.63290 | 8633 ft | 274 kts | 332° |
| 2026-04-20 13:48 | 50.76923 | -0.64710 | 8434 ft | 274 kts | 332° |
| 2026-04-20 13:49 | 50.78629 | -0.66042 | 8247 ft | 273 kts | 334° |
| 2026-04-20 13:49 | 50.80347 | -0.67325 | 8047 ft | 272 kts | 335° |
| 2026-04-20 13:49 | 50.82034 | -0.68583 | 7852 ft | 271 kts | 335° |
| 2026-04-20 13:49 | 50.83738 | -0.69855 | 7641 ft | 270 kts | 335° |
| 2026-04-20 13:50 | 50.85440 | -0.71128 | 7448 ft | 270 kts | 335° |
| 2026-04-20 13:50 | 50.87135 | -0.72406 | 7314 ft | 267 kts | 335° |
| 2026-04-20 13:50 | 50.88804 | -0.73673 | 7327 ft | 266 kts | 335° |
| 2026-04-20 13:50 | 50.90463 | -0.74940 | 7325 ft | 262 kts | 335° |
| 2026-04-20 13:51 | 50.92101 | -0.76197 | 7102 ft | 262 kts | 335° |
| 2026-04-20 13:51 | 50.93740 | -0.77448 | 6908 ft | 261 kts | 335° |
| 2026-04-20 13:51 | 50.95372 | -0.78707 | 6721 ft | 260 kts | 335° |
| 2026-04-20 13:51 | 50.96993 | -0.79975 | 6358 ft | 261 kts | 335° |
| 2026-04-20 13:52 | 50.98613 | -0.81242 | 6046 ft | 257 kts | 334° |
| 2026-04-20 13:52 | 51.00226 | -0.82494 | 5689 ft | 257 kts | 335° |
| 2026-04-20 13:52 | 51.01814 | -0.83597 | 5571 ft | 238 kts | 338° |
| 2026-04-20 13:52 | 51.03283 | -0.84597 | 5564 ft | 222 kts | 337° |
| 2026-04-20 13:53 | 51.04657 | -0.85580 | 5560 ft | 219 kts | 336° |
| 2026-04-20 13:53 | 51.06056 | -0.86574 | 5572 ft | 220 kts | 336° |
| 2026-04-20 13:53 | 51.07460 | -0.87573 | 5459 ft | 222 kts | 337° |
| 2026-04-20 13:53 | 51.08868 | -0.88577 | 5199 ft | 221 kts | 336° |
| 2026-04-20 13:54 | 51.10267 | -0.89569 | 4909 ft | 219 kts | 337° |
| 2026-04-20 13:54 | 51.11659 | -0.90563 | 4617 ft | 219 kts | 337° |
| 2026-04-20 13:54 | 51.13054 | -0.91557 | 4326 ft | 219 kts | 337° |
| 2026-04-20 13:54 | 51.14437 | -0.92546 | 4038 ft | 217 kts | 336° |
| 2026-04-20 13:55 | 51.15812 | -0.93528 | 3745 ft | 217 kts | 336° |
| 2026-04-20 13:55 | 51.17222 | -0.94533 | 3211 ft | 225 kts | 336° |
| 2026-04-20 13:55 | 51.18648 | -0.95470 | 2834 ft | 223 kts | 345° |
| 2026-04-20 13:55 | 51.20177 | -0.95465 | 2558 ft | 215 kts | 11° |
| 2026-04-20 13:56 | 51.21480 | -0.94558 | 2491 ft | 201 kts | 33° |
| 2026-04-20 13:56 | 51.22382 | -0.92967 | 2485 ft | 188 kts | 54° |
| 2026-04-20 13:56 | 51.23053 | -0.91169 | 2369 ft | 191 kts | 57° |
| 2026-04-20 13:56 | 51.23699 | -0.89298 | 2061 ft | 191 kts | 59° |
| 2026-04-20 13:57 | 51.24280 | -0.87504 | 1757 ft | 178 kts | 60° |
| 2026-04-20 13:57 | 51.24853 | -0.85824 | 1482 ft | 166 kts | 57° |
| 2026-04-20 13:57 | 51.25362 | -0.84256 | 1231 ft | 154 kts | 59° |
| 2026-04-20 13:57 | 51.25858 | -0.82798 | 966 ft | 146 kts | 57° |
| 2026-04-20 13:58 | 51.26338 | -0.81343 | 733 ft | 146 kts | 61° |
| 2026-04-20 13:58 | 51.26816 | -0.79885 | 488 ft | 147 kts | 57° |
| 2026-04-20 13:58 | 51.27287 | -0.78499 | 274 ft | 136 kts | 57° |
| 2026-04-20 13:58 | 51.27707 | -0.77273 | 230 ft | 115 kts | 62° |
| 2026-04-20 13:59 | 51.27945 | -0.76548 | 230 ft | 26 kts | 61° |
| 2026-04-20 13:59 | 51.28013 | -0.76555 | 229 ft | 12 kts | 297° |
| 2026-04-20 13:59 | 51.28038 | -0.76689 | 230 ft | 13 kts | 287° |
| 2026-04-20 13:59 | 51.28069 | -0.76849 | 225 ft | 17 kts | 290° |
| 2026-04-20 14:00 | 51.28097 | -0.76987 | 221 ft | 8 kts | 286° |
| 2026-04-20 14:00 | 51.28119 | -0.77098 | 219 ft | 12 kts | 289° |
| 2026-04-20 14:00 | 51.28150 | -0.77248 | 216 ft | 16 kts | 288° |
| 2026-04-20 14:00 | 51.28186 | -0.77432 | 214 ft | 19 kts | 288° |
| 2026-04-20 14:01 | 51.28221 | -0.77612 | 220 ft | 13 kts | 280° |
| 2026-04-20 14:01 | 51.28168 | -0.77722 | 216 ft | 14 kts | 214° |
| 2026-04-20 14:01 | 51.28084 | -0.77818 | 216 ft | 16 kts | 216° |
| 2026-04-20 14:01 | 51.27983 | -0.77873 | 218 ft | 7 kts | 186° |
| 2026-04-20 14:02 | 51.27933 | -0.77894 | 218 ft | 8 kts | 215° |
| 2026-04-20 14:02 | 51.27879 | -0.77950 | 218 ft | 10 kts | 196° |
| 2026-04-20 14:02 | 51.27841 | -0.77929 | 218 ft | 3 kts | 156° |
| 2026-04-20 14:02 | 51.27833 | -0.77924 | 218 ft | 0 kts | 158° |
| 2026-04-20 14:03 | 51.27829 | -0.77922 | 218 ft | 0 kts | 158° |